createdAt,value
2019-05-14T00:01:26.098Z,3.90
2019-05-14T00:03:53.596Z,3.80
2019-05-14T00:06:22.068Z,3.80
2019-05-14T00:08:52.208Z,3.70
2019-05-14T00:11:21.784Z,3.70
2019-05-14T00:13:49.197Z,3.70
2019-05-14T00:16:16.913Z,3.60
2019-05-14T00:18:44.632Z,3.60
2019-05-14T00:21:12.463Z,4.20
2019-05-14T00:23:42.102Z,3.60
2019-05-14T00:26:11.982Z,3.60
2019-05-14T00:28:42.290Z,3.60
2019-05-14T00:31:11.986Z,3.70
2019-05-14T00:33:41.764Z,3.70
2019-05-14T00:36:11.134Z,3.70
2019-05-14T00:38:38.601Z,3.70
2019-05-14T00:41:06.162Z,3.70
2019-05-14T00:43:33.856Z,3.80
2019-05-14T00:46:01.833Z,3.70
2019-05-14T00:48:31.767Z,3.80
2019-05-14T00:51:01.965Z,3.70
2019-05-14T00:53:32.061Z,4.00
2019-05-14T00:56:02.108Z,4.00
2019-05-14T00:58:31.021Z,3.90
2019-05-14T01:00:58.778Z,3.70
2019-05-14T01:03:27.014Z,3.70
2019-05-14T01:05:54.803Z,3.90
2019-05-14T01:08:22.408Z,4.00
2019-05-14T01:10:51.185Z,4.20
2019-05-14T01:13:19.012Z,4.30
2019-05-14T01:15:46.980Z,4.30
2019-05-14T01:18:14.784Z,4.30
2019-05-14T01:20:42.438Z,4.30
2019-05-14T01:23:11.512Z,4.30
2019-05-14T01:25:39.200Z,4.10
2019-05-14T01:28:07.029Z,4.10
2019-05-14T01:30:34.605Z,3.90
2019-05-14T01:33:02.230Z,3.70
2019-05-14T01:35:31.556Z,3.70
2019-05-14T01:37:59.655Z,3.80
2019-05-14T01:40:27.368Z,3.80
2019-05-14T01:42:55.347Z,3.90
2019-05-14T01:45:27.880Z,4.00
2019-05-14T01:47:52.465Z,4.00
2019-05-14T01:50:21.596Z,3.80
2019-05-14T01:52:51.840Z,3.60
2019-05-14T01:55:21.779Z,3.60
2019-05-14T01:57:51.565Z,3.60
2019-05-14T02:00:21.870Z,3.60
2019-05-14T02:02:49.487Z,3.70
2019-05-14T02:05:17.237Z,3.60
2019-05-14T02:07:45.008Z,3.60
2019-05-14T02:10:12.550Z,3.50
2019-05-14T02:12:42.314Z,3.40
2019-05-14T02:15:12.048Z,3.20
2019-05-14T02:17:41.386Z,3.10
2019-05-14T02:20:12.364Z,3.10
2019-05-14T02:22:41.687Z,3.20
2019-05-14T02:25:11.668Z,3.40
2019-05-14T02:27:41.211Z,3.40
2019-05-14T02:30:09.204Z,3.50
2019-05-14T02:32:40.050Z,3.50
2019-05-14T02:35:09.610Z,3.50
2019-05-14T02:37:39.271Z,3.60
2019-05-14T02:40:06.136Z,3.70
2019-05-14T02:42:33.859Z,3.70
2019-05-14T02:45:01.591Z,3.70
2019-05-14T02:47:29.959Z,3.80
2019-05-14T02:49:59.013Z,3.70
2019-05-14T02:52:29.186Z,3.90
2019-05-14T02:54:59.497Z,4.00
2019-05-14T02:57:25.847Z,4.00
2019-05-14T02:59:53.515Z,4.00
2019-05-14T03:02:21.167Z,3.90
2019-05-14T03:04:49.876Z,3.80
2019-05-14T03:07:19.391Z,3.60
2019-05-14T03:09:50.015Z,3.40
2019-05-14T03:12:19.396Z,3.20
2019-05-14T03:14:49.481Z,3.30
2019-05-14T03:17:19.575Z,3.10
2019-05-14T03:19:49.303Z,3.20
2019-05-14T03:22:15.353Z,3.10
2019-05-14T03:24:43.033Z,3.20
2019-05-14T03:27:10.859Z,3.30
2019-05-14T03:29:39.830Z,3.20
2019-05-14T03:32:12.773Z,3.30
2019-05-14T03:34:42.804Z,3.40
2019-05-14T03:37:13.157Z,3.40
2019-05-14T03:39:39.434Z,3.50
2019-05-14T03:42:09.208Z,3.60
2019-05-14T03:44:39.543Z,3.60
2019-05-14T03:47:10.002Z,3.60
2019-05-14T03:49:39.387Z,3.50
2019-05-14T03:52:09.304Z,3.60
2019-05-14T03:54:35.842Z,3.50
2019-05-14T03:57:03.575Z,3.60
2019-05-14T03:59:31.294Z,3.70
2019-05-14T04:01:59.882Z,3.70
2019-05-14T04:04:29.910Z,3.70
2019-05-14T04:07:00.002Z,3.80
2019-05-14T04:09:31.980Z,3.90
2019-05-14T04:12:02.077Z,4.10
2019-05-14T04:14:31.843Z,4.20
2019-05-14T04:17:09.898Z,4.30
2019-05-14T04:19:32.696Z,4.30
2019-05-14T04:22:05.610Z,4.30
2019-05-14T04:24:41.472Z,4.30
2019-05-14T04:27:13.065Z,4.30
2019-05-14T04:29:40.675Z,4.40
2019-05-14T04:32:09.568Z,4.40
2019-05-14T04:34:39.914Z,4.50
2019-05-14T04:37:09.777Z,4.50
2019-05-14T04:39:39.597Z,4.40
2019-05-14T04:42:09.561Z,4.50
2019-05-14T04:44:40.357Z,4.50
2019-05-14T04:47:22.786Z,4.60
2019-05-14T04:49:39.919Z,4.60
2019-05-14T04:52:10.027Z,4.70
2019-05-14T04:54:39.400Z,4.80
2019-05-14T04:57:09.895Z,4.90
2019-05-14T04:59:39.345Z,4.90
2019-05-14T05:02:09.207Z,5.00
2019-05-14T05:04:35.979Z,5.00
2019-05-14T05:07:03.750Z,5.00
2019-05-14T05:09:32.377Z,5.20
2019-05-14T05:12:00.092Z,5.30
2019-05-14T05:14:29.647Z,5.30
2019-05-14T05:16:59.661Z,5.40
2019-05-14T05:19:29.090Z,5.60
2019-05-14T05:21:58.681Z,5.80
2019-05-14T05:24:28.735Z,5.80
2019-05-14T05:26:58.553Z,5.90
2019-05-14T05:29:28.555Z,6.00
2019-05-14T05:31:56.454Z,6.10
2019-05-14T05:34:28.154Z,6.20
2019-05-14T05:36:55.480Z,6.20
2019-05-14T05:39:23.193Z,6.30
2019-05-14T05:41:50.975Z,6.40
2019-05-14T05:44:18.834Z,6.50
2019-05-14T05:46:49.167Z,6.50
2019-05-14T05:49:18.717Z,6.50
2019-05-14T05:51:48.367Z,6.60
2019-05-14T05:54:18.512Z,6.70
2019-05-14T05:56:48.034Z,6.80
2019-05-14T05:59:18.759Z,6.90
2019-05-14T06:01:46.574Z,6.90
2019-05-14T06:04:18.123Z,7.00
2019-05-14T06:06:48.042Z,7.20
2019-05-14T06:09:15.153Z,7.50
2019-05-14T06:11:43.171Z,7.60
2019-05-14T06:14:11.450Z,7.70
2019-05-14T06:16:39.262Z,7.80
2019-05-14T06:19:08.271Z,7.90
2019-05-14T06:21:36.264Z,8.00
2019-05-14T06:24:04.256Z,7.90
2019-05-14T06:26:32.222Z,8.00
2019-05-14T06:29:00.035Z,8.10
2019-05-14T06:31:29.210Z,8.10
2019-05-14T06:33:59.215Z,8.00
2019-05-14T06:36:28.926Z,8.10
2019-05-14T06:38:58.431Z,8.10
2019-05-14T06:41:28.181Z,8.10
2019-05-14T06:43:55.323Z,8.10
2019-05-14T06:46:23.032Z,8.20
2019-05-14T06:48:50.751Z,8.40
2019-05-14T06:51:19.884Z,8.40
2019-05-14T06:53:49.935Z,8.60
2019-05-14T06:56:21.057Z,8.80
2019-05-14T06:58:49.078Z,8.90
2019-05-14T07:01:18.557Z,9.00
2019-05-14T07:03:48.697Z,9.00
2019-05-14T07:06:18.371Z,9.10
2019-05-14T07:08:48.125Z,9.20
2019-05-14T07:11:15.182Z,9.30
2019-05-14T07:13:43.683Z,9.50
2019-05-14T07:16:12.718Z,9.80
2019-05-14T07:18:52.823Z,10.10
2019-05-14T07:21:10.705Z,10.00
2019-05-14T07:23:38.735Z,9.90
2019-05-14T07:26:08.430Z,10.20
2019-05-14T07:28:41.643Z,10.50
2019-05-14T07:31:05.815Z,10.70
2019-05-14T07:33:33.553Z,10.70
2019-05-14T07:36:01.461Z,10.50
2019-05-14T07:38:29.496Z,10.50
2019-05-14T07:40:58.559Z,10.50
2019-05-14T07:43:28.728Z,10.50
2019-05-14T07:45:58.255Z,10.30
2019-05-14T07:48:28.671Z,10.50
2019-05-14T07:50:56.053Z,10.60
2019-05-14T07:53:36.007Z,10.40
2019-05-14T07:55:54.123Z,10.30
2019-05-14T07:58:23.150Z,10.20
2019-05-14T08:00:50.819Z,10.20
2019-05-14T08:03:19.074Z,10.20
2019-05-14T08:05:48.271Z,10.20
2019-05-14T08:08:18.572Z,10.30
2019-05-14T08:10:48.481Z,10.30
2019-05-14T08:13:15.756Z,10.80
2019-05-14T08:15:43.647Z,10.90
2019-05-14T08:18:11.273Z,11.40
2019-05-14T08:20:38.985Z,11.80
2019-05-14T08:23:08.773Z,12.00
2019-05-14T08:25:38.808Z,11.90
2019-05-14T08:28:08.126Z,11.40
2019-05-14T08:30:38.929Z,10.90
2019-05-14T08:33:08.765Z,10.60
2019-05-14T08:35:36.247Z,10.50
2019-05-14T08:38:11.323Z,10.60
2019-05-14T08:40:37.877Z,11.00
2019-05-14T08:43:05.706Z,11.10
2019-05-14T08:45:33.335Z,11.30
2019-05-14T08:48:01.037Z,11.10
2019-05-14T08:50:28.809Z,11.00
2019-05-14T08:52:58.294Z,11.00
2019-05-14T08:55:26.045Z,10.80
2019-05-14T08:57:54.453Z,10.80
2019-05-14T09:00:22.153Z,10.70
2019-05-14T09:02:50.939Z,10.70
2019-05-14T09:05:18.742Z,10.70
2019-05-14T09:07:48.869Z,10.70
2019-05-14T09:10:15.931Z,10.90
2019-05-14T09:12:43.580Z,10.90
2019-05-14T09:15:11.510Z,11.20
2019-05-14T09:17:39.487Z,11.20
2019-05-14T09:20:11.063Z,11.10
2019-05-14T09:22:39.690Z,11.00
2019-05-14T09:25:08.481Z,11.20
2019-05-14T09:27:38.795Z,11.60
2019-05-14T09:30:09.338Z,11.50
2019-05-14T09:32:38.762Z,11.50
2019-05-14T09:35:09.661Z,11.20
2019-05-14T09:37:36.277Z,11.10
2019-05-14T09:40:04.895Z,10.90
2019-05-14T09:42:32.602Z,10.90
2019-05-14T09:45:00.302Z,12.10
2019-05-14T09:47:28.311Z,13.40
2019-05-14T09:49:58.282Z,14.10
2019-05-14T09:52:25.881Z,13.70
2019-05-14T09:54:53.499Z,13.40
2019-05-14T09:57:21.010Z,13.20
2019-05-14T09:59:48.839Z,13.00
2019-05-14T10:02:16.871Z,13.60
2019-05-14T10:04:48.665Z,13.40
2019-05-14T10:07:16.087Z,13.30
2019-05-14T10:09:43.675Z,13.10
2019-05-14T10:12:12.626Z,12.90
2019-05-14T10:14:40.471Z,12.60
2019-05-14T10:17:08.123Z,12.30
2019-05-14T10:19:38.884Z,11.80
2019-05-14T10:22:05.224Z,11.30
2019-05-14T10:24:33.015Z,10.90
2019-05-14T10:27:01.101Z,10.60
2019-05-14T10:29:28.958Z,10.40
2019-05-14T10:31:59.030Z,10.50
2019-05-14T10:34:28.561Z,12.00
2019-05-14T10:36:55.544Z,12.90
2019-05-14T10:39:23.338Z,12.90
2019-05-14T10:41:51.396Z,12.30
2019-05-14T10:44:19.316Z,11.50
2019-05-14T10:46:47.019Z,11.00
2019-05-14T10:49:22.706Z,10.80
2019-05-14T10:51:44.582Z,10.80
2019-05-14T10:54:22.289Z,10.90
2019-05-14T10:56:41.705Z,11.50
2019-05-14T10:59:09.610Z,11.80
2019-05-14T11:01:40.528Z,12.80
2019-05-14T11:04:08.724Z,12.80
2019-05-14T11:06:38.615Z,12.10
2019-05-14T11:09:08.879Z,11.80
2019-05-14T11:11:38.088Z,12.10
2019-05-14T11:14:05.572Z,12.50
2019-05-14T11:16:33.588Z,12.50
2019-05-14T11:19:01.566Z,12.30
2019-05-14T11:21:30.301Z,11.60
2019-05-14T11:23:58.659Z,11.20
2019-05-14T11:26:29.177Z,11.20
2019-05-14T11:28:58.336Z,12.80
2019-05-14T11:31:25.430Z,14.40
2019-05-14T11:33:54.082Z,16.20
2019-05-14T11:36:22.102Z,16.70
2019-05-14T11:38:51.035Z,17.20
2019-05-14T11:41:19.117Z,18.00
2019-05-14T11:43:49.209Z,18.80
2019-05-14T11:46:26.035Z,18.20
2019-05-14T11:48:48.943Z,16.70
2019-05-14T11:51:18.980Z,15.30
2019-05-14T11:53:49.222Z,14.00
2019-05-14T11:56:19.154Z,13.10
2019-05-14T11:58:46.508Z,12.20
2019-05-14T12:01:14.117Z,11.80
2019-05-14T12:03:41.845Z,11.50
2019-05-14T12:06:10.053Z,11.60
2019-05-14T12:08:41.853Z,11.90
2019-05-14T12:11:08.749Z,13.70
2019-05-14T12:13:39.172Z,15.80
2019-05-14T12:16:08.359Z,17.70
2019-05-14T12:18:41.375Z,18.60
2019-05-14T12:21:08.925Z,16.90
2019-05-14T12:23:36.418Z,15.60
2019-05-14T12:26:04.365Z,14.70
2019-05-14T12:28:32.144Z,14.30
2019-05-14T12:30:59.639Z,13.90
2019-05-14T12:33:30.749Z,13.50
2019-05-14T12:36:00.250Z,12.80
2019-05-14T12:38:29.531Z,12.00
2019-05-14T12:40:58.284Z,11.70
2019-05-14T12:43:28.165Z,11.50
2019-05-14T12:45:59.078Z,11.70
2019-05-14T12:48:25.740Z,11.80
2019-05-14T12:50:54.474Z,13.00
2019-05-14T12:53:22.104Z,15.10
2019-05-14T12:55:50.131Z,15.20
2019-05-14T12:58:20.222Z,14.70
2019-05-14T13:00:48.628Z,13.70
2019-05-14T13:03:18.868Z,12.70
2019-05-14T13:05:48.936Z,12.00
2019-05-14T13:08:18.439Z,11.70
2019-05-14T13:10:45.772Z,11.00
2019-05-14T13:13:13.416Z,11.00
2019-05-14T13:15:42.089Z,11.10
2019-05-14T13:18:09.652Z,11.50
2019-05-14T13:20:38.984Z,12.10
2019-05-14T13:23:09.802Z,12.60
2019-05-14T13:25:39.184Z,12.80
2019-05-14T13:28:08.872Z,13.10
2019-05-14T13:30:37.660Z,13.40
2019-05-14T13:33:08.632Z,13.30
2019-05-14T13:35:35.520Z,13.20
2019-05-14T13:38:03.527Z,12.60
2019-05-14T13:40:31.842Z,12.20
2019-05-14T13:42:59.409Z,11.80
2019-05-14T13:45:29.693Z,11.60
2019-05-14T13:47:59.124Z,11.50
2019-05-14T13:50:29.258Z,11.40
2019-05-14T13:53:03.131Z,11.40
2019-05-14T13:55:28.025Z,11.30
2019-05-14T13:57:55.691Z,11.10
2019-05-14T14:00:24.074Z,10.60
2019-05-14T14:02:52.125Z,10.30
2019-05-14T14:05:20.608Z,10.00
2019-05-14T14:07:48.739Z,10.00
2019-05-14T14:10:16.930Z,9.90
2019-05-14T14:12:45.077Z,10.00
2019-05-14T14:15:13.036Z,10.40
2019-05-14T14:17:40.717Z,11.20
2019-05-14T14:20:11.871Z,11.90
2019-05-14T14:22:40.422Z,13.10
2019-05-14T14:25:09.151Z,14.60
2019-05-14T14:27:40.819Z,16.90
2019-05-14T14:30:09.342Z,18.40
2019-05-14T14:32:36.515Z,18.30
2019-05-14T14:35:04.177Z,15.90
2019-05-14T14:37:32.151Z,14.30
2019-05-14T14:39:59.868Z,12.80
2019-05-14T14:42:29.752Z,11.00
2019-05-14T14:44:57.615Z,9.20
2019-05-14T14:47:25.562Z,7.90
2019-05-14T14:49:53.708Z,6.80
2019-05-14T14:52:21.882Z,6.30
2019-05-14T14:54:49.959Z,6.10
2019-05-14T14:57:19.946Z,6.30
2019-05-14T14:59:48.496Z,6.30
2019-05-14T15:02:19.447Z,6.40
2019-05-14T15:04:46.044Z,6.30
2019-05-14T15:07:14.010Z,6.30
2019-05-14T15:09:42.651Z,6.40
2019-05-14T15:12:10.324Z,6.30
2019-05-14T15:14:39.527Z,6.30
2019-05-14T15:17:09.565Z,6.60
2019-05-14T15:19:39.498Z,6.70
2019-05-14T15:22:08.820Z,6.90
2019-05-14T15:24:36.336Z,7.20
2019-05-14T15:27:08.868Z,7.10
2019-05-14T15:29:34.270Z,7.20
2019-05-14T15:32:02.136Z,7.80
2019-05-14T15:34:30.558Z,7.60
2019-05-14T15:36:59.883Z,8.00
2019-05-14T15:39:30.216Z,9.30
2019-05-14T15:42:04.000Z,10.20
2019-05-14T15:44:44.177Z,10.20
2019-05-14T15:46:58.739Z,10.20
2019-05-14T15:49:28.351Z,10.20
2019-05-14T15:51:55.957Z,9.60
2019-05-14T15:54:39.788Z,9.60
2019-05-14T15:56:53.872Z,9.50
2019-05-14T15:59:21.482Z,9.60
2019-05-14T16:01:49.158Z,9.50
2019-05-14T16:04:16.983Z,9.30
2019-05-14T16:06:44.667Z,9.30
2019-05-14T16:09:12.596Z,9.20
2019-05-14T16:11:40.596Z,8.90
2019-05-14T16:14:10.215Z,8.60
2019-05-14T16:16:39.210Z,8.50
2019-05-14T16:19:09.339Z,8.60
2019-05-14T16:21:40.415Z,8.70
2019-05-14T16:24:08.440Z,8.90
2019-05-14T16:26:36.282Z,8.90
2019-05-14T16:29:04.013Z,8.80
2019-05-14T16:31:31.869Z,8.90
2019-05-14T16:33:59.972Z,8.80
2019-05-14T16:36:28.861Z,8.70
2019-05-14T16:38:58.456Z,8.80
2019-05-14T16:41:29.003Z,8.70
2019-05-14T16:43:58.562Z,8.70
2019-05-14T16:46:25.990Z,8.60
2019-05-14T16:48:53.991Z,8.50
2019-05-14T16:51:21.937Z,8.50
2019-05-14T16:53:49.572Z,8.70
2019-05-14T16:56:19.244Z,9.20
2019-05-14T16:58:47.124Z,9.60
2019-05-14T17:01:14.835Z,9.80
2019-05-14T17:03:42.647Z,9.90
2019-05-14T17:06:10.548Z,9.90
2019-05-14T17:08:39.502Z,9.60
2019-05-14T17:11:08.900Z,9.50
2019-05-14T17:13:38.124Z,9.40
2019-05-14T17:16:08.592Z,9.30
2019-05-14T17:18:35.696Z,9.20
2019-05-14T17:21:03.458Z,9.00
2019-05-14T17:23:31.594Z,8.80
2019-05-14T17:25:59.463Z,8.70
2019-05-14T17:28:28.641Z,8.70
2019-05-14T17:30:56.721Z,8.60
2019-05-14T17:33:24.406Z,8.50
2019-05-14T17:35:52.045Z,8.40
2019-05-14T17:38:19.994Z,8.30
2019-05-14T17:40:48.852Z,8.40
2019-05-14T17:43:19.033Z,8.30
2019-05-14T17:45:48.209Z,8.20
2019-05-14T17:48:18.200Z,8.10
2019-05-14T17:50:45.441Z,8.10
2019-05-14T17:53:13.023Z,8.10
2019-05-14T17:55:46.663Z,8.00
2019-05-14T17:58:13.097Z,8.00
2019-05-14T18:00:40.106Z,7.90
2019-05-14T18:03:11.224Z,7.70
2019-05-14T18:05:41.604Z,7.90
2019-05-14T18:08:09.446Z,7.90
2019-05-14T18:10:39.113Z,8.00
2019-05-14T18:13:09.257Z,7.90
2019-05-14T18:15:39.299Z,7.90
2019-05-14T18:18:08.868Z,7.80
2019-05-14T18:20:39.181Z,7.70
2019-05-14T18:23:11.459Z,7.70
2019-05-14T18:25:38.693Z,7.60
2019-05-14T18:28:09.292Z,7.50
2019-05-14T18:30:38.662Z,7.50
2019-05-14T18:33:07.980Z,7.40
2019-05-14T18:35:43.999Z,7.30
2019-05-14T18:38:08.114Z,7.20
2019-05-14T18:40:39.588Z,7.10
2019-05-14T18:43:08.604Z,7.10
2019-05-14T18:45:38.748Z,7.10
2019-05-14T18:48:15.719Z,6.90
2019-05-14T18:50:48.429Z,6.80
2019-05-14T18:53:16.120Z,6.80
2019-05-14T18:55:44.134Z,6.60
2019-05-14T18:58:12.093Z,6.60
2019-05-14T19:00:40.711Z,6.50
2019-05-14T19:03:14.207Z,6.40
2019-05-14T19:05:44.345Z,6.40
2019-05-14T19:08:12.587Z,6.30
2019-05-14T19:10:40.902Z,6.30
2019-05-14T19:13:09.822Z,6.30
2019-05-14T19:15:39.093Z,6.30
2019-05-14T19:18:09.088Z,6.30
2019-05-14T19:20:39.042Z,6.20
2019-05-14T19:23:08.137Z,6.20
2019-05-14T19:25:36.167Z,6.20
2019-05-14T19:28:04.409Z,6.40
2019-05-14T19:30:33.534Z,6.20
2019-05-14T19:33:01.573Z,6.20
2019-05-14T19:35:31.541Z,6.20
2019-05-14T19:38:00.607Z,6.30
2019-05-14T19:40:28.366Z,6.30
2019-05-14T19:42:56.239Z,6.60
2019-05-14T19:45:24.623Z,6.20
2019-05-14T19:47:53.437Z,6.20
2019-05-14T19:50:21.285Z,6.10
2019-05-14T19:52:49.653Z,6.20
2019-05-14T19:55:18.867Z,6.10
2019-05-14T19:57:48.960Z,6.10
2019-05-14T20:00:23.271Z,6.10
2019-05-14T20:02:51.180Z,6.00
2019-05-14T20:05:20.040Z,6.00
2019-05-14T20:07:49.071Z,6.00
2019-05-14T20:10:16.912Z,6.00
2019-05-14T20:12:44.658Z,6.00
2019-05-14T20:15:13.610Z,6.00
2019-05-14T20:17:41.775Z,6.00
2019-05-14T20:20:09.735Z,6.10
2019-05-14T20:22:39.342Z,5.90
2019-05-14T20:25:07.804Z,5.90
2019-05-14T20:27:35.438Z,5.90
2019-05-14T20:30:04.014Z,5.70
2019-05-14T20:32:33.239Z,5.80
2019-05-14T20:35:01.134Z,5.70
2019-05-14T20:37:29.210Z,5.60
2019-05-14T20:39:59.056Z,5.60
2019-05-14T20:42:28.964Z,5.50
2019-05-14T20:44:56.659Z,5.50
2019-05-14T20:47:24.866Z,5.40
2019-05-14T20:49:52.590Z,5.40
2019-05-14T20:52:20.545Z,5.40
2019-05-14T20:54:48.549Z,5.50
2019-05-14T20:57:24.335Z,5.30
2019-05-14T20:59:48.267Z,5.30
2019-05-14T21:02:18.610Z,5.20
2019-05-14T21:04:53.494Z,5.20
2019-05-14T21:07:16.122Z,5.10
2019-05-14T21:09:43.779Z,5.20
2019-05-14T21:12:11.934Z,5.10
2019-05-14T21:14:41.378Z,5.00
2019-05-14T21:17:09.725Z,5.10
2019-05-14T21:19:38.091Z,5.10
2019-05-14T21:22:08.226Z,5.10
2019-05-14T21:24:38.907Z,5.10
2019-05-14T21:27:05.442Z,5.00
2019-05-14T21:29:32.974Z,4.90
2019-05-14T21:32:01.616Z,4.90
2019-05-14T21:34:29.389Z,4.80
2019-05-14T21:36:58.499Z,4.80
2019-05-14T21:39:27.469Z,4.80
2019-05-14T21:41:55.201Z,4.80
2019-05-14T21:44:23.303Z,5.10
2019-05-14T21:46:50.994Z,4.80
2019-05-14T21:49:19.028Z,4.60
2019-05-14T21:51:48.352Z,4.80
2019-05-14T21:54:18.951Z,4.70
2019-05-14T21:56:49.383Z,4.70
2019-05-14T21:59:18.355Z,4.70
2019-05-14T22:01:48.062Z,4.70
2019-05-14T22:04:18.452Z,4.90
2019-05-14T22:06:45.464Z,4.60
2019-05-14T22:09:13.577Z,4.60
2019-05-14T22:11:41.242Z,4.60
2019-05-14T22:14:08.917Z,4.60
2019-05-14T22:16:38.099Z,4.60
2019-05-14T22:19:08.319Z,4.40
2019-05-14T22:21:35.723Z,4.60
2019-05-14T22:24:03.381Z,4.40
2019-05-14T22:26:31.309Z,4.50
2019-05-14T22:28:58.862Z,4.50
2019-05-14T22:31:28.749Z,4.40
2019-05-14T22:33:58.146Z,4.10
2019-05-14T22:36:25.722Z,4.40
2019-05-14T22:38:53.813Z,4.40
2019-05-14T22:41:21.704Z,4.40
2019-05-14T22:43:51.447Z,4.30
2019-05-14T22:46:18.802Z,4.30
2019-05-14T22:48:51.317Z,4.30
2019-05-14T22:51:18.885Z,4.10
2019-05-14T22:53:46.564Z,4.20
2019-05-14T22:56:14.217Z,4.20
2019-05-14T22:58:41.800Z,4.60
2019-05-14T23:01:14.830Z,4.10
2019-05-14T23:03:39.690Z,4.00
2019-05-14T23:06:09.035Z,4.50
2019-05-14T23:08:39.038Z,4.00
2019-05-14T23:11:08.502Z,4.80
2019-05-14T23:13:35.830Z,4.00
2019-05-14T23:16:03.359Z,4.00
2019-05-14T23:18:30.981Z,4.00
2019-05-14T23:20:59.255Z,3.90
2019-05-14T23:23:28.385Z,3.90
2019-05-14T23:25:58.793Z,3.80
2019-05-14T23:28:38.831Z,3.80
2019-05-14T23:30:55.195Z,3.70
2019-05-14T23:33:22.840Z,3.70
2019-05-14T23:35:50.806Z,3.50
2019-05-14T23:38:19.252Z,3.70
2019-05-14T23:40:49.133Z,3.60
2019-05-14T23:43:18.575Z,3.60
2019-05-14T23:45:46.657Z,3.60
2019-05-14T23:48:14.633Z,3.60
2019-05-14T23:50:42.291Z,3.50
2019-05-14T23:53:09.935Z,3.40
2019-05-14T23:55:38.591Z,3.40
2019-05-14T23:58:08.301Z,3.40
